createdAt,value
2022-10-05T00:00:31.189Z,13.01
2022-10-05T00:01:31.177Z,12.98
2022-10-05T00:02:31.137Z,12.95
2022-10-05T00:03:31.103Z,12.93
2022-10-05T00:04:31.090Z,12.87
2022-10-05T00:05:31.130Z,12.86
2022-10-05T00:06:31.089Z,12.87
2022-10-05T00:07:31.063Z,12.83
2022-10-05T00:08:31.049Z,12.84
2022-10-05T00:09:31.054Z,12.84
2022-10-05T00:10:31.011Z,12.81
2022-10-05T00:11:31.062Z,12.90
2022-10-05T00:12:31.004Z,12.86
2022-10-05T00:13:31.010Z,12.90
2022-10-05T00:14:30.970Z,12.84
2022-10-05T00:15:30.970Z,12.83
2022-10-05T00:16:31.009Z,12.79
2022-10-05T00:17:30.965Z,12.80
2022-10-05T00:18:30.941Z,12.83
2022-10-05T00:19:30.926Z,12.77
2022-10-05T00:20:30.914Z,12.79
2022-10-05T00:21:30.905Z,12.83
2022-10-05T00:22:30.911Z,12.83
2022-10-05T00:23:30.888Z,12.84
2022-10-05T00:24:30.864Z,12.86
2022-10-05T00:25:30.863Z,12.81
2022-10-05T00:26:30.846Z,12.84
2022-10-05T00:27:30.876Z,12.83
2022-10-05T00:28:30.890Z,12.83
2022-10-05T00:29:30.814Z,12.76
2022-10-05T00:30:30.806Z,12.79
2022-10-05T00:31:30.885Z,12.72
2022-10-05T00:32:30.824Z,12.77
2022-10-05T00:33:30.781Z,12.79
2022-10-05T00:34:30.767Z,12.77
2022-10-05T00:35:30.769Z,12.72
2022-10-05T00:36:30.751Z,12.77
2022-10-05T00:37:30.737Z,12.80
2022-10-05T00:38:30.766Z,12.73
2022-10-05T00:39:30.732Z,12.71
2022-10-05T00:40:30.699Z,12.72
2022-10-05T00:41:30.688Z,12.71
2022-10-05T00:42:30.712Z,12.66
2022-10-05T00:43:30.668Z,12.68
2022-10-05T00:44:30.721Z,12.69
2022-10-05T00:45:30.685Z,12.71
2022-10-05T00:46:30.639Z,12.66
2022-10-05T00:47:30.640Z,12.69
2022-10-05T00:48:30.617Z,12.71
2022-10-05T00:49:30.637Z,12.71
2022-10-05T00:50:30.642Z,12.69
2022-10-05T00:51:30.773Z,12.71
2022-10-05T00:52:30.580Z,12.68
2022-10-05T00:53:30.565Z,12.66
2022-10-05T00:54:30.542Z,12.71
2022-10-05T00:55:30.563Z,12.69
2022-10-05T00:56:30.524Z,12.69
2022-10-05T00:57:30.552Z,12.69
2022-10-05T00:58:30.503Z,12.69
2022-10-05T00:59:30.492Z,12.66
2022-10-05T01:00:30.480Z,12.66
2022-10-05T01:01:30.524Z,12.59
2022-10-05T01:02:34.493Z,12.65
2022-10-05T01:03:31.482Z,12.65
2022-10-05T01:04:30.442Z,12.59
2022-10-05T01:05:30.551Z,12.61
2022-10-05T01:06:30.414Z,12.61
2022-10-05T01:07:30.403Z,12.61
2022-10-05T01:08:30.394Z,12.58
2022-10-05T01:09:30.396Z,12.54
2022-10-05T01:10:30.385Z,12.62
2022-10-05T01:11:30.374Z,12.65
2022-10-05T01:12:30.356Z,12.65
2022-10-05T01:13:30.360Z,12.62
2022-10-05T01:14:30.327Z,12.62
2022-10-05T01:15:30.317Z,12.61
2022-10-05T01:16:30.382Z,12.62
2022-10-05T01:17:30.286Z,12.59
2022-10-05T01:18:30.298Z,12.59
2022-10-05T01:19:30.280Z,12.61
2022-10-05T01:20:30.258Z,12.62
2022-10-05T01:21:30.250Z,12.66
2022-10-05T01:22:30.245Z,12.71
2022-10-05T01:23:30.229Z,12.69
2022-10-05T01:24:30.228Z,12.61
2022-10-05T01:25:30.217Z,12.58
2022-10-05T01:26:30.200Z,12.59
2022-10-05T01:27:30.189Z,12.55
2022-10-05T01:28:30.217Z,12.62
2022-10-05T01:29:30.208Z,12.65
2022-10-05T01:30:30.161Z,12.61
2022-10-05T01:31:30.222Z,12.62
2022-10-05T01:32:30.132Z,12.63
2022-10-05T01:33:30.140Z,12.66
2022-10-05T01:34:30.140Z,12.66
2022-10-05T01:35:30.116Z,12.55
2022-10-05T01:36:30.091Z,12.53
2022-10-05T01:37:30.083Z,12.58
2022-10-05T01:38:30.082Z,12.54
2022-10-05T01:39:30.115Z,12.51
2022-10-05T01:40:30.043Z,12.51
2022-10-05T01:41:30.054Z,12.48
2022-10-05T01:42:30.027Z,12.48
2022-10-05T01:43:30.022Z,12.48
2022-10-05T01:44:29.992Z,12.48
2022-10-05T01:45:30.083Z,12.44
2022-10-05T01:46:29.981Z,12.46
2022-10-05T01:47:29.963Z,12.47
2022-10-05T01:48:29.983Z,12.44
2022-10-05T01:49:29.947Z,12.43
2022-10-05T01:50:29.952Z,12.44
2022-10-05T01:51:29.915Z,12.47
2022-10-05T01:52:29.914Z,12.46
2022-10-05T01:53:29.905Z,12.48
2022-10-05T01:54:29.895Z,12.50
2022-10-05T01:55:29.916Z,12.55
2022-10-05T01:56:29.886Z,12.58
2022-10-05T01:57:29.854Z,12.53
2022-10-05T01:58:29.848Z,12.50
2022-10-05T01:59:29.848Z,12.53
2022-10-05T02:00:29.826Z,12.50
2022-10-05T02:01:29.865Z,12.48
2022-10-05T02:02:30.210Z,12.50
2022-10-05T02:03:29.800Z,12.50
2022-10-05T02:05:00.388Z,12.50
2022-10-05T02:05:30.799Z,12.55
2022-10-05T02:06:29.769Z,12.61
2022-10-05T02:07:29.771Z,12.62
2022-10-05T02:08:29.749Z,12.55
2022-10-05T02:09:29.744Z,12.54
2022-10-05T02:10:29.763Z,12.54
2022-10-05T02:11:29.707Z,12.55
2022-10-05T02:12:29.710Z,12.55
2022-10-05T02:13:29.689Z,12.55
2022-10-05T02:14:29.689Z,12.53
2022-10-05T02:15:29.704Z,12.51
2022-10-05T02:16:29.677Z,12.50
2022-10-05T02:17:29.682Z,12.54
2022-10-05T02:18:29.641Z,12.53
2022-10-05T02:19:29.622Z,12.50
2022-10-05T02:20:29.630Z,12.58
2022-10-05T02:21:29.601Z,12.55
2022-10-05T02:22:29.582Z,12.54
2022-10-05T02:23:29.592Z,12.58
2022-10-05T02:24:29.586Z,12.62
2022-10-05T02:25:29.581Z,12.59
2022-10-05T02:26:29.662Z,12.59
2022-10-05T02:27:29.543Z,12.61
2022-10-05T02:28:29.646Z,12.59
2022-10-05T02:29:29.524Z,12.53
2022-10-05T02:30:29.506Z,12.55
2022-10-05T02:31:29.576Z,12.54
2022-10-05T02:32:29.483Z,12.53
2022-10-05T02:33:29.516Z,12.55
2022-10-05T02:34:29.481Z,12.53
2022-10-05T02:35:29.462Z,12.58
2022-10-05T02:36:29.453Z,12.55
2022-10-05T02:37:29.426Z,12.50
2022-10-05T02:38:29.414Z,12.48
2022-10-05T02:39:29.413Z,12.48
2022-10-05T02:40:29.407Z,12.46
2022-10-05T02:41:29.468Z,12.46
2022-10-05T02:42:29.438Z,12.46
2022-10-05T02:43:29.377Z,12.46
2022-10-05T02:44:29.357Z,12.44
2022-10-05T02:45:29.336Z,12.44
2022-10-05T02:46:29.366Z,12.51
2022-10-05T02:47:29.316Z,12.54
2022-10-05T02:48:29.309Z,12.58
2022-10-05T02:49:29.295Z,12.58
2022-10-05T02:50:29.294Z,12.61
2022-10-05T02:51:29.289Z,12.51
2022-10-05T02:52:29.257Z,12.54
2022-10-05T02:53:29.250Z,12.54
2022-10-05T02:54:29.299Z,12.53
2022-10-05T02:55:29.240Z,12.50
2022-10-05T02:56:29.218Z,12.51
2022-10-05T02:57:29.222Z,12.51
2022-10-05T02:58:29.192Z,12.46
2022-10-05T02:59:29.191Z,12.46
2022-10-05T03:00:29.268Z,12.48
2022-10-05T03:01:29.239Z,12.53
2022-10-05T03:02:29.430Z,12.48
2022-10-05T03:03:29.150Z,12.51
2022-10-05T03:04:29.225Z,12.50
2022-10-05T03:05:29.127Z,12.50
2022-10-05T03:06:29.134Z,12.47
2022-10-05T03:07:29.134Z,12.51
2022-10-05T03:08:29.099Z,12.55
2022-10-05T03:09:29.132Z,12.53
2022-10-05T03:10:29.072Z,12.51
2022-10-05T03:11:29.073Z,12.51
2022-10-05T03:12:29.091Z,12.50
2022-10-05T03:13:29.052Z,12.53
2022-10-05T03:14:29.034Z,12.59
2022-10-05T03:15:29.014Z,12.58
2022-10-05T03:16:29.131Z,12.51
2022-10-05T03:17:29.021Z,12.48
2022-10-05T03:18:30.964Z,12.48
2022-10-05T03:19:28.995Z,12.46
2022-10-05T03:20:28.964Z,12.47
2022-10-05T03:21:28.976Z,12.47
2022-10-05T03:22:28.948Z,12.44
2022-10-05T03:23:28.966Z,12.44
2022-10-05T03:24:28.920Z,12.44
2022-10-05T03:25:28.916Z,12.44
2022-10-05T03:26:28.926Z,12.47
2022-10-05T03:27:28.887Z,12.43
2022-10-05T03:28:28.943Z,12.48
2022-10-05T03:29:28.896Z,12.54
2022-10-05T03:30:28.870Z,12.51
2022-10-05T03:31:28.961Z,12.47
2022-10-05T03:32:28.849Z,12.50
2022-10-05T03:33:28.818Z,12.47
2022-10-05T03:34:28.839Z,12.50
2022-10-05T03:35:28.823Z,12.46
2022-10-05T03:36:28.790Z,12.43
2022-10-05T03:37:28.793Z,12.41
2022-10-05T03:38:28.772Z,12.47
2022-10-05T03:39:28.770Z,12.48
2022-10-05T03:40:28.755Z,12.53
2022-10-05T03:41:28.747Z,12.51
2022-10-05T03:42:28.833Z,12.50
2022-10-05T03:43:28.733Z,12.40
2022-10-05T03:44:28.703Z,12.46
2022-10-05T03:45:28.705Z,12.47
2022-10-05T03:46:28.716Z,12.51
2022-10-05T03:47:28.675Z,12.47
2022-10-05T03:48:28.703Z,12.44
2022-10-05T03:49:28.650Z,12.46
2022-10-05T03:50:28.648Z,12.47
2022-10-05T03:51:28.667Z,12.47
2022-10-05T03:52:28.613Z,12.48
2022-10-05T03:53:28.618Z,12.50
2022-10-05T03:54:28.612Z,12.48
2022-10-05T03:55:28.625Z,12.53
2022-10-05T03:56:28.565Z,12.51
2022-10-05T03:57:28.565Z,12.51
2022-10-05T03:58:28.580Z,12.51
2022-10-05T03:59:32.427Z,12.48
2022-10-05T04:00:28.525Z,12.50
2022-10-05T04:01:28.563Z,12.50
2022-10-05T04:02:28.553Z,12.47
2022-10-05T04:03:28.535Z,12.47
2022-10-05T04:04:28.493Z,12.43
2022-10-05T04:05:28.484Z,12.43
2022-10-05T04:06:28.468Z,12.46
2022-10-05T04:07:28.467Z,12.44
2022-10-05T04:08:28.452Z,12.43
2022-10-05T04:09:28.477Z,12.41
2022-10-05T04:10:28.426Z,12.44
2022-10-05T04:11:28.412Z,12.46
2022-10-05T04:12:28.417Z,12.44
2022-10-05T04:13:28.408Z,12.41
2022-10-05T04:14:28.391Z,12.40
2022-10-05T04:15:28.420Z,12.43
2022-10-05T04:16:28.469Z,12.41
2022-10-05T04:17:28.351Z,12.41
2022-10-05T04:18:28.339Z,12.43
2022-10-05T04:19:28.329Z,12.47
2022-10-05T04:20:28.321Z,12.47
2022-10-05T04:21:28.338Z,12.48
2022-10-05T04:22:28.352Z,12.53
2022-10-05T04:23:28.282Z,12.48
2022-10-05T04:24:28.273Z,12.44
2022-10-05T04:25:28.260Z,12.46
2022-10-05T04:26:28.361Z,12.44
2022-10-05T04:27:28.245Z,12.41
2022-10-05T04:28:31.982Z,12.43
2022-10-05T04:29:28.212Z,12.40
2022-10-05T04:30:28.203Z,12.44
2022-10-05T04:31:28.266Z,12.48
2022-10-05T04:32:28.183Z,12.46
2022-10-05T04:33:28.184Z,12.47
2022-10-05T04:34:28.170Z,12.48
2022-10-05T04:35:28.155Z,12.50
2022-10-05T04:36:28.265Z,12.48
2022-10-05T04:37:28.134Z,12.48
2022-10-05T04:38:28.117Z,12.53
2022-10-05T04:39:28.113Z,12.48
2022-10-05T04:40:28.094Z,12.51
2022-10-05T04:41:28.194Z,12.48
2022-10-05T04:42:28.107Z,12.48
2022-10-05T04:43:28.065Z,12.47
2022-10-05T04:44:28.055Z,12.44
2022-10-05T04:45:28.048Z,12.46
2022-10-05T04:46:28.081Z,12.46
2022-10-05T04:47:28.059Z,12.50
2022-10-05T04:48:28.012Z,12.54
2022-10-05T04:49:27.998Z,12.47
2022-10-05T04:50:28.001Z,12.50
2022-10-05T04:51:27.989Z,12.47
2022-10-05T04:52:27.968Z,12.48
2022-10-05T04:53:28.003Z,12.50
2022-10-05T04:54:27.953Z,12.51
2022-10-05T04:55:27.943Z,12.48
2022-10-05T04:56:27.919Z,12.47
2022-10-05T04:57:27.911Z,12.50
2022-10-05T04:58:27.933Z,12.50
2022-10-05T04:59:27.911Z,12.50
2022-10-05T05:00:27.881Z,12.50
2022-10-05T05:01:27.889Z,12.50
2022-10-05T05:02:27.869Z,12.51
2022-10-05T05:03:27.885Z,12.51
2022-10-05T05:04:27.857Z,12.50
2022-10-05T05:05:27.841Z,12.55
2022-10-05T05:06:27.851Z,12.58
2022-10-05T05:07:27.808Z,12.55
2022-10-05T05:08:27.796Z,12.55
2022-10-05T05:09:27.807Z,12.54
2022-10-05T05:10:27.773Z,12.53
2022-10-05T05:11:27.761Z,12.50
2022-10-05T05:12:27.782Z,12.53
2022-10-05T05:13:27.768Z,12.55
2022-10-05T05:14:27.724Z,12.53
2022-10-05T05:15:27.732Z,12.59
2022-10-05T05:16:27.782Z,12.61
2022-10-05T05:17:27.705Z,12.61
2022-10-05T05:18:27.755Z,12.62
2022-10-05T05:19:27.676Z,12.61
2022-10-05T05:20:27.665Z,12.63
2022-10-05T05:21:27.659Z,12.61
2022-10-05T05:22:27.648Z,12.58
2022-10-05T05:23:27.626Z,12.58
2022-10-05T05:24:27.647Z,12.59
2022-10-05T05:25:27.616Z,12.63
2022-10-05T05:26:27.619Z,12.62
2022-10-05T05:27:27.600Z,12.63
2022-10-05T05:28:27.655Z,12.61
2022-10-05T05:29:27.569Z,12.63
2022-10-05T05:30:27.549Z,12.61
2022-10-05T05:31:27.612Z,12.68
2022-10-05T05:32:27.598Z,12.66
2022-10-05T05:33:27.527Z,12.66
2022-10-05T05:34:27.510Z,12.68
2022-10-05T05:35:27.499Z,12.66
2022-10-05T05:36:27.499Z,12.63
2022-10-05T05:37:27.489Z,12.63
2022-10-05T05:38:27.503Z,12.69
2022-10-05T05:39:27.479Z,12.66
2022-10-05T05:40:27.461Z,12.65
2022-10-05T05:41:27.442Z,12.68
2022-10-05T05:42:27.450Z,12.71
2022-10-05T05:43:27.410Z,12.68
2022-10-05T05:44:27.442Z,12.68
2022-10-05T05:45:27.392Z,12.71
2022-10-05T05:46:51.048Z,12.71
2022-10-05T05:47:28.427Z,12.72
2022-10-05T05:48:27.363Z,12.73
2022-10-05T05:49:27.361Z,12.68
2022-10-05T05:50:27.380Z,12.66
2022-10-05T05:51:27.377Z,12.68
2022-10-05T05:52:27.322Z,12.69
2022-10-05T05:53:27.302Z,12.72
2022-10-05T05:54:27.303Z,12.66
2022-10-05T05:55:30.145Z,12.66
2022-10-05T05:56:27.324Z,12.63
2022-10-05T05:57:27.275Z,12.63
2022-10-05T05:58:27.265Z,12.66
2022-10-05T05:59:27.265Z,12.66
2022-10-05T06:00:27.251Z,12.72
2022-10-05T06:01:33.138Z,12.71
2022-10-05T06:02:28.288Z,12.71
2022-10-05T06:03:27.326Z,12.72
2022-10-05T06:04:27.185Z,12.76
2022-10-05T06:05:27.196Z,12.72
2022-10-05T06:06:27.195Z,12.71
2022-10-05T06:07:30.593Z,12.73
2022-10-05T06:08:27.145Z,12.77
2022-10-05T06:09:27.137Z,12.71
2022-10-05T06:10:27.127Z,12.72
2022-10-05T06:11:27.137Z,12.72
2022-10-05T06:12:27.106Z,12.77
2022-10-05T06:13:27.104Z,12.76
2022-10-05T06:14:27.090Z,12.80
2022-10-05T06:15:27.069Z,12.80
2022-10-05T06:16:27.242Z,12.77
2022-10-05T06:17:27.068Z,12.73
2022-10-05T06:18:27.030Z,12.73
2022-10-05T06:19:27.028Z,12.72
2022-10-05T06:20:27.087Z,12.71
2022-10-05T06:21:27.050Z,12.73
2022-10-05T06:22:27.013Z,12.72
2022-10-05T06:23:26.990Z,12.68
2022-10-05T06:24:26.971Z,12.72
2022-10-05T06:25:26.972Z,12.68
2022-10-05T06:26:26.955Z,12.76
2022-10-05T06:27:26.972Z,12.77
2022-10-05T06:28:26.989Z,12.76
2022-10-05T06:29:26.994Z,12.73
2022-10-05T06:30:26.959Z,12.76
2022-10-05T06:31:26.966Z,12.77
2022-10-05T06:32:26.912Z,12.73
2022-10-05T06:33:26.883Z,12.76
2022-10-05T06:34:26.872Z,12.80
2022-10-05T06:35:26.859Z,12.77
2022-10-05T06:36:26.841Z,12.80
2022-10-05T06:37:26.845Z,12.81
2022-10-05T06:38:26.884Z,12.81
2022-10-05T06:39:26.813Z,12.79
2022-10-05T06:40:26.856Z,12.76
2022-10-05T06:41:26.785Z,12.76
2022-10-05T06:42:26.782Z,12.80
2022-10-05T06:43:26.827Z,12.79
2022-10-05T06:44:26.744Z,12.80
2022-10-05T06:45:26.908Z,12.80
2022-10-05T06:46:26.748Z,12.79
2022-10-05T06:47:26.745Z,12.80
2022-10-05T06:48:26.734Z,12.81
2022-10-05T06:49:26.743Z,12.79
2022-10-05T06:50:26.692Z,12.77
2022-10-05T06:51:26.686Z,12.79
2022-10-05T06:52:26.677Z,12.79
2022-10-05T06:53:26.659Z,12.80
2022-10-05T06:54:26.666Z,12.79
2022-10-05T06:55:26.638Z,12.80
2022-10-05T06:56:26.636Z,12.83
2022-10-05T06:57:26.648Z,12.83
2022-10-05T06:58:26.622Z,12.81
2022-10-05T06:59:26.608Z,12.86
2022-10-05T07:00:26.579Z,12.88
2022-10-05T07:01:26.622Z,12.86
2022-10-05T07:02:26.892Z,12.87
2022-10-05T07:03:26.609Z,12.88
2022-10-05T07:04:26.540Z,12.88
2022-10-05T07:05:26.790Z,12.86
2022-10-05T07:06:26.535Z,12.87
2022-10-05T07:07:26.511Z,12.90
2022-10-05T07:08:26.506Z,12.88
2022-10-05T07:09:26.511Z,12.93
2022-10-05T07:10:26.522Z,12.93
2022-10-05T07:11:26.481Z,12.95
2022-10-05T07:12:26.453Z,12.95
2022-10-05T07:13:26.452Z,12.96
2022-10-05T07:14:26.454Z,12.95
2022-10-05T07:15:26.437Z,12.98
2022-10-05T07:16:26.491Z,13.01
2022-10-05T07:17:26.406Z,13.01
2022-10-05T07:18:26.491Z,12.99
2022-10-05T07:19:26.385Z,12.99
2022-10-05T07:20:26.372Z,13.02
2022-10-05T07:21:26.425Z,12.99
2022-10-05T07:22:28.315Z,13.01
2022-10-05T07:23:26.334Z,13.01
2022-10-05T07:24:26.332Z,13.06
2022-10-05T07:25:26.320Z,13.04
2022-10-05T07:26:26.426Z,13.04
2022-10-05T07:27:26.294Z,13.05
2022-10-05T07:28:26.505Z,12.99
2022-10-05T07:29:26.273Z,13.02
2022-10-05T07:30:26.255Z,13.04
2022-10-05T07:31:26.337Z,13.08
2022-10-05T07:32:26.308Z,13.09
2022-10-05T07:33:26.242Z,13.11
2022-10-05T07:34:26.217Z,13.11
2022-10-05T07:35:26.208Z,13.08
2022-10-05T07:36:26.198Z,13.09
2022-10-05T07:37:26.309Z,13.05
2022-10-05T07:38:26.170Z,13.06
2022-10-05T07:39:42.025Z,13.08
2022-10-05T07:40:27.168Z,13.11
2022-10-05T07:41:26.147Z,13.11
2022-10-05T07:42:26.215Z,13.14
2022-10-05T07:43:31.992Z,13.11
2022-10-05T07:44:27.108Z,13.14
2022-10-05T07:45:26.179Z,13.16
2022-10-05T07:46:26.092Z,13.16
2022-10-05T07:47:26.069Z,13.17
2022-10-05T07:48:26.100Z,13.20
2022-10-05T07:49:26.063Z,13.19
2022-10-05T07:50:26.044Z,13.21
2022-10-05T07:51:26.034Z,13.23
2022-10-05T07:52:26.024Z,13.21
2022-10-05T07:53:26.080Z,13.23
2022-10-05T07:54:26.007Z,13.27
2022-10-05T07:55:26.001Z,13.23
2022-10-05T07:56:25.992Z,13.24
2022-10-05T07:57:25.979Z,13.24
2022-10-05T07:58:26.122Z,13.26
2022-10-05T07:59:25.953Z,13.30
2022-10-05T08:00:25.951Z,13.29
2022-10-05T08:01:25.992Z,13.29
2022-10-05T08:02:26.189Z,13.27
2022-10-05T08:03:25.971Z,13.27
2022-10-05T08:04:25.893Z,13.35
2022-10-05T08:05:25.896Z,13.38
2022-10-05T08:06:25.871Z,13.38
2022-10-05T08:07:25.874Z,13.38
2022-10-05T08:08:25.857Z,13.39
2022-10-05T08:09:25.895Z,13.38
2022-10-05T08:10:25.834Z,13.38
2022-10-05T08:11:25.816Z,13.40
2022-10-05T08:12:25.805Z,13.39
2022-10-05T08:13:25.814Z,13.39
2022-10-05T08:14:25.777Z,13.42
2022-10-05T08:15:25.828Z,13.43
2022-10-05T08:16:25.843Z,13.43
2022-10-05T08:17:26.395Z,13.47
2022-10-05T08:18:25.761Z,13.47
2022-10-05T08:19:25.738Z,13.51
2022-10-05T08:20:25.740Z,13.49
2022-10-05T08:21:25.729Z,13.51
2022-10-05T08:22:25.839Z,13.53
2022-10-05T08:23:25.689Z,13.57
2022-10-05T08:24:25.691Z,13.54
2022-10-05T08:25:25.673Z,13.58
2022-10-05T08:26:25.662Z,13.60
2022-10-05T08:27:25.647Z,13.60
2022-10-05T08:28:25.737Z,13.64
2022-10-05T08:29:25.620Z,13.64
2022-10-05T08:30:25.630Z,13.64
2022-10-05T08:31:25.655Z,13.64
2022-10-05T08:32:25.605Z,13.65
2022-10-05T08:33:25.580Z,13.71
2022-10-05T08:34:26.012Z,13.68
2022-10-05T08:35:25.561Z,13.75
2022-10-05T08:36:25.553Z,13.79
2022-10-05T08:37:25.544Z,13.78
2022-10-05T08:38:25.530Z,13.78
2022-10-05T08:39:25.532Z,13.76
2022-10-05T08:40:25.567Z,13.76
2022-10-05T08:41:25.507Z,13.76
2022-10-05T08:42:25.484Z,13.78
2022-10-05T08:43:25.476Z,13.79
2022-10-05T08:44:25.489Z,13.78
2022-10-05T08:45:25.463Z,13.80
2022-10-05T08:46:25.645Z,13.83
2022-10-05T08:47:25.436Z,13.85
2022-10-05T08:48:25.424Z,13.86
2022-10-05T08:49:25.405Z,13.90
2022-10-05T08:50:25.405Z,13.88
2022-10-05T08:51:25.394Z,13.91
2022-10-05T08:52:25.485Z,13.93
2022-10-05T08:53:25.369Z,13.94
2022-10-05T08:54:25.366Z,13.97
2022-10-05T08:55:25.347Z,13.98
2022-10-05T08:56:28.777Z,13.96
2022-10-05T08:57:25.330Z,13.96
2022-10-05T08:58:25.358Z,13.96
2022-10-05T08:59:25.307Z,13.97
2022-10-05T09:00:25.306Z,14.00
2022-10-05T09:01:25.356Z,14.00
2022-10-05T09:02:25.597Z,14.03
2022-10-05T09:03:25.267Z,14.03
2022-10-05T09:04:25.381Z,14.04
2022-10-05T09:05:25.238Z,14.04
2022-10-05T09:06:25.289Z,14.03
2022-10-05T09:07:25.220Z,14.01
2022-10-05T09:08:25.208Z,14.01
2022-10-05T09:09:25.310Z,14.05
2022-10-05T09:10:25.181Z,14.05
2022-10-05T09:11:25.170Z,14.03
2022-10-05T09:12:25.175Z,14.09
2022-10-05T09:13:25.157Z,14.16
2022-10-05T09:14:25.151Z,14.22
2022-10-05T09:15:26.411Z,14.23
2022-10-05T09:16:25.241Z,14.23
2022-10-05T09:17:25.120Z,14.23
2022-10-05T09:18:25.134Z,14.27
2022-10-05T09:19:25.100Z,14.26
2022-10-05T09:20:25.108Z,14.28
2022-10-05T09:21:25.147Z,14.33
2022-10-05T09:22:25.052Z,14.34
2022-10-05T09:23:25.043Z,14.37
2022-10-05T09:24:25.045Z,14.41
2022-10-05T09:25:25.025Z,14.48
2022-10-05T09:26:25.038Z,14.48
2022-10-05T09:27:25.015Z,14.52
2022-10-05T09:28:25.088Z,14.55
2022-10-05T09:29:25.011Z,14.59
2022-10-05T09:30:24.994Z,14.56
2022-10-05T09:31:25.053Z,14.63
2022-10-05T09:32:24.966Z,14.67
2022-10-05T09:33:24.935Z,14.66
2022-10-05T09:34:24.934Z,14.64
2022-10-05T09:35:24.957Z,14.66
2022-10-05T09:36:24.921Z,14.63
2022-10-05T09:37:24.897Z,14.66
2022-10-05T09:38:24.893Z,14.64
2022-10-05T09:39:24.866Z,14.64
2022-10-05T09:40:24.863Z,14.63
2022-10-05T09:41:24.867Z,14.61
2022-10-05T09:42:24.859Z,14.64
2022-10-05T09:43:24.837Z,14.59
2022-10-05T09:44:24.852Z,14.63
2022-10-05T09:45:24.821Z,14.66
2022-10-05T09:46:24.905Z,14.67
2022-10-05T09:47:24.810Z,14.70
2022-10-05T09:48:24.783Z,14.69
2022-10-05T09:49:24.769Z,14.67
2022-10-05T09:50:24.760Z,14.67
2022-10-05T09:51:24.750Z,14.67
2022-10-05T09:52:24.762Z,14.67
2022-10-05T09:53:24.782Z,14.67
2022-10-05T09:54:24.724Z,14.70
2022-10-05T09:55:24.798Z,14.69
2022-10-05T09:56:24.727Z,14.69
2022-10-05T09:57:24.680Z,14.67
2022-10-05T09:58:24.683Z,14.69
2022-10-05T09:59:24.657Z,14.69
2022-10-05T10:00:24.655Z,14.73
2022-10-05T10:01:39.732Z,14.74
2022-10-05T10:02:25.864Z,14.77
2022-10-05T10:03:24.672Z,14.74
2022-10-05T10:04:24.611Z,14.77
2022-10-05T10:05:24.604Z,14.77
2022-10-05T10:06:24.603Z,14.77
2022-10-05T10:07:24.609Z,14.78
2022-10-05T10:08:24.572Z,14.79
2022-10-05T10:09:24.553Z,14.82
2022-10-05T10:10:24.594Z,14.83
2022-10-05T10:11:24.537Z,14.86
2022-10-05T10:12:24.533Z,14.93
2022-10-05T10:13:24.526Z,15.03
2022-10-05T10:14:24.629Z,15.07
2022-10-05T10:15:24.489Z,15.12
2022-10-05T10:16:24.507Z,15.17
2022-10-05T10:17:24.477Z,15.17
2022-10-05T10:18:24.467Z,15.15
2022-10-05T10:19:24.446Z,15.20
2022-10-05T10:20:24.457Z,15.22
2022-10-05T10:21:24.431Z,15.23
2022-10-05T10:22:24.412Z,15.26
2022-10-05T10:23:24.508Z,15.29
2022-10-05T10:24:24.386Z,15.33
2022-10-05T10:25:24.379Z,15.33
2022-10-05T10:26:24.500Z,15.32
2022-10-05T10:27:24.349Z,15.38
2022-10-05T10:28:24.413Z,15.40
2022-10-05T10:29:24.387Z,15.43
2022-10-05T10:30:27.414Z,15.47
2022-10-05T10:31:24.405Z,15.54
2022-10-05T10:32:24.318Z,15.59
2022-10-05T10:33:24.291Z,15.60
2022-10-05T10:34:24.300Z,15.68
2022-10-05T10:35:24.367Z,15.65
2022-10-05T10:36:24.271Z,15.63
2022-10-05T10:37:24.250Z,15.60
2022-10-05T10:38:24.241Z,15.63
2022-10-05T10:39:24.297Z,15.65
2022-10-05T10:40:24.223Z,15.69
2022-10-05T10:41:24.201Z,15.72
2022-10-05T10:42:26.170Z,15.78
2022-10-05T10:43:24.193Z,15.84
2022-10-05T10:44:24.174Z,15.91
2022-10-05T10:45:24.332Z,15.95
2022-10-05T10:46:24.226Z,15.91
2022-10-05T10:47:24.196Z,15.93
2022-10-05T10:48:24.141Z,15.90
2022-10-05T10:49:24.134Z,15.84
2022-10-05T10:50:24.215Z,15.90
2022-10-05T10:51:24.101Z,15.91
2022-10-05T10:52:24.095Z,15.88
2022-10-05T10:53:24.085Z,15.90
2022-10-05T10:54:24.073Z,15.93
2022-10-05T10:55:24.055Z,15.87
2022-10-05T10:56:24.045Z,15.90
2022-10-05T10:57:24.267Z,15.87
2022-10-05T10:58:24.067Z,15.88
2022-10-05T10:59:26.621Z,15.87
2022-10-05T11:00:24.996Z,15.91
2022-10-05T11:01:24.024Z,15.87
2022-10-05T11:02:24.022Z,15.85
2022-10-05T11:03:24.008Z,15.87
2022-10-05T11:04:23.957Z,15.87
2022-10-05T11:05:23.956Z,15.84
2022-10-05T11:06:23.950Z,15.87
2022-10-05T11:07:23.939Z,15.84
2022-10-05T11:08:23.929Z,15.84
2022-10-05T11:09:24.023Z,15.84
2022-10-05T11:10:23.901Z,15.87
2022-10-05T11:11:23.889Z,15.87
2022-10-05T11:12:23.890Z,15.90
2022-10-05T11:13:23.976Z,15.93
2022-10-05T11:14:23.841Z,15.95
2022-10-05T11:15:23.852Z,15.98
2022-10-05T11:16:23.835Z,15.99
2022-10-05T11:17:23.830Z,15.96
2022-10-05T11:18:23.826Z,16.02
2022-10-05T11:19:35.028Z,16.08
2022-10-05T11:20:24.856Z,16.13
2022-10-05T11:21:23.789Z,16.17
2022-10-05T11:22:23.763Z,16.22
2022-10-05T11:23:23.754Z,16.32
2022-10-05T11:24:23.774Z,16.42
2022-10-05T11:25:23.735Z,16.49
2022-10-05T11:26:23.733Z,16.51
2022-10-05T11:27:23.731Z,16.52
2022-10-05T11:28:23.745Z,16.54
2022-10-05T11:29:23.738Z,16.54
2022-10-05T11:30:23.692Z,16.59
2022-10-05T11:31:23.742Z,16.58
2022-10-05T11:32:23.660Z,16.65
2022-10-05T11:33:23.663Z,16.72
2022-10-05T11:34:23.638Z,16.76
2022-10-05T11:35:23.645Z,16.79
2022-10-05T11:36:23.625Z,16.91
2022-10-05T11:37:23.643Z,16.95
2022-10-05T11:38:23.596Z,16.97
2022-10-05T11:39:23.602Z,16.95
2022-10-05T11:40:23.579Z,16.97
2022-10-05T11:41:23.578Z,16.97
2022-10-05T11:42:23.647Z,16.97
2022-10-05T11:43:23.592Z,16.95
2022-10-05T11:44:23.538Z,16.92
2022-10-05T11:45:23.528Z,16.90
2022-10-05T11:46:23.584Z,16.88
2022-10-05T11:47:23.508Z,16.98
2022-10-05T11:48:23.496Z,17.06
2022-10-05T11:49:23.530Z,17.09
2022-10-05T11:50:23.528Z,17.07
2022-10-05T11:51:28.468Z,17.07
2022-10-05T11:52:24.470Z,17.04
2022-10-05T11:53:23.441Z,17.02
2022-10-05T11:54:23.431Z,17.01
2022-10-05T11:55:23.461Z,17.04
2022-10-05T11:56:23.481Z,17.10
2022-10-05T11:57:23.401Z,17.14
2022-10-05T11:58:23.380Z,17.14
2022-10-05T11:59:23.377Z,17.27
2022-10-05T12:00:23.412Z,17.32
2022-10-05T12:01:23.361Z,17.41
2022-10-05T12:02:23.352Z,17.43
2022-10-05T12:03:23.463Z,17.50
2022-10-05T12:04:23.326Z,17.52
2022-10-05T12:05:23.310Z,17.49
2022-10-05T12:06:23.353Z,17.47
2022-10-05T12:07:23.289Z,17.45
2022-10-05T12:08:23.284Z,17.43
2022-10-05T12:09:23.282Z,17.41
2022-10-05T12:10:23.268Z,17.39
2022-10-05T12:11:23.244Z,17.39
2022-10-05T12:12:23.284Z,17.38
2022-10-05T12:13:23.297Z,17.37
2022-10-05T12:14:23.221Z,17.37
2022-10-05T12:15:23.205Z,17.38
2022-10-05T12:16:23.253Z,17.34
2022-10-05T12:17:23.185Z,17.28
2022-10-05T12:18:23.200Z,17.22
2022-10-05T12:19:23.165Z,17.19
2022-10-05T12:20:23.157Z,17.20
2022-10-05T12:21:23.162Z,17.27
2022-10-05T12:22:23.128Z,17.32
2022-10-05T12:23:23.117Z,17.35
2022-10-05T12:24:26.640Z,17.35
2022-10-05T12:25:23.094Z,17.35
2022-10-05T12:26:23.086Z,17.37
2022-10-05T12:27:23.117Z,17.38
2022-10-05T12:28:23.108Z,17.35
2022-10-05T12:29:23.054Z,17.32
2022-10-05T12:30:23.065Z,17.31
2022-10-05T12:31:23.083Z,17.30
2022-10-05T12:32:23.044Z,17.32
2022-10-05T12:33:23.039Z,17.34
2022-10-05T12:34:23.003Z,17.37
2022-10-05T12:35:36.660Z,17.38
2022-10-05T12:36:26.331Z,17.34
2022-10-05T12:37:22.961Z,17.31
2022-10-05T12:38:22.963Z,17.25
2022-10-05T12:39:22.943Z,17.24
2022-10-05T12:40:22.932Z,17.20
2022-10-05T12:41:22.941Z,17.24
2022-10-05T12:42:22.911Z,17.25
2022-10-05T12:43:22.903Z,17.28
2022-10-05T12:44:22.903Z,17.28
2022-10-05T12:45:22.883Z,17.27
2022-10-05T12:46:22.873Z,17.31
2022-10-05T12:47:22.887Z,17.35
2022-10-05T12:48:22.856Z,17.37
2022-10-05T12:49:22.852Z,17.39
2022-10-05T12:50:22.844Z,17.34
2022-10-05T12:51:22.820Z,17.30
2022-10-05T12:52:22.913Z,17.28